Marion, TX (78124)

8:19 PM CDT on March 26, 2017 (GMT -0500)
Marion | | Change Station

Elev 656 ft 29.55 °N, 98.13 °W | Updated 5 seconds ago

Partly Cloudy
Partly Cloudy
74.5 °F
Feels Like 75 °F
N
3.0
Wind Variable Wind from ESE
Gusts 8.0 mph

Today
High -- | Low -- °F
--% Chance of Precip.
Yesterday
High -- | Low -- °F
Precip. -- in
Pressure 29.75 in
Visibility 10.0 miles
Clouds Few 3700 ft
Scattered Clouds 4500 ft
Heat Index 75 °F
Dew Point 67 °F
Humidity 77%
Rainfall 0.00 in
Snow Depth Not available.
7:28 AM 7:47 PM
Waning Crescent, 2% visible
METAR KRND 270058Z AUTO 14012KT 10SM FEW037 SCT045 24/19 A2977 RMK AO2 SLP075 T02420189 $
Pressure 29.75 in
Visibility 10.0 miles
Clouds Few 3700 ft
Scattered Clouds 4500 ft
Heat Index 75 °F
Dew Point 67 °F
Humidity 77%
Rainfall 0.00 in
Snow Depth Not available.
7:28 AM 7:47 PM
Waning Crescent, 2% visible
METAR KRND 270058Z AUTO 14012KT 10SM FEW037 SCT045 24/19 A2977 RMK AO2 SLP075 T02420189 $

Get Severe Weather Alerts

Thanks for signing up!

Be on the lookout for a verification email in your inbox.

You'll start receiving the daily forecast at 8 AM.

×

10-Day Weather Forecast

Almanac

Astronomy

Mar. 26, 2017 Rise Set
Actual Time
Civil Twilight
Nautical Twilight
Astronomical Twilight
Moon
Length of Visible Light
Length of Day
Tomorrow will be .
, % of the Moon is Illuminated

Today's Extremes

State Highs State Lows

Community

WunderPhotos

Upload Photos

1,962,540 photos uploaded!

WunderBlog® & News

Nearby

Air Quality

  Air Quality AQ Index Pollutant
Not available.

Snow Depth

Station Depth Elevation

Earthquake Activity

City Distance Mag. Time & Date
Minimum magnitude displayed is 2.5.

Earthquake Activity

City Distance Mag. Time & Date
Minimum magnitude displayed is 2.5.

Coastal Water Temperatures

Place Temperature

Stations

Nearby Weather Stations

Station Location Temp. Windchill Dew Point Humidity Wind Precip. Elev Updated Type
                   

Watches & Warnings

There are currently no watches in effect.